| time (UTC) | temp F | wind direction | speed knots | gust knots | rain 1hr in | rain 24hr in | rain mn in | humidity % | barometer mb |
| 20260507152512 | 63 | 158 | 1.7 | 4.3 | 0.00 | 0.00 | 0.00 | 78 | 1013.0 |
| 20260507152412 | 63 | 158 | 1.7 | 4.3 | 0.00 | 0.00 | 0.00 | 78 | 1013.0 |
| 20260507150511 | 63 | 158 | 1.7 | 4.3 | 0.00 | 0.00 | 0.00 | 77 | 1013.0 |
| 20260507150411 | 63 | 158 | 1.7 | 4.3 | 0.00 | 0.00 | 0.00 | 77 | 1013.0 |
| 20260507144511 | 64 | 158 | 1.7 | 4.3 | 0.00 | 0.00 | 0.00 | 74 | 1014.0 |
| 20260507144410 | 64 | 158 | 1.7 | 4.3 | 0.00 | 0.00 | 0.00 | 74 | 1014.0 |
| 20260507142510 | 64 | 103 | 0.0 | 3.5 | 0.00 | 0.00 | 0.00 | 80 | 1013.0 |
| 20260507142410 | 64 | 103 | 0.0 | 3.5 | 0.00 | 0.00 | 0.00 | 80 | 1013.0 |
| 20260507140510 | 65 | 103 | 0.0 | 3.5 | 0.00 | 0.00 | 0.00 | 79 | 1013.0 |
| 20260507140409 | 65 | 103 | 0.0 | 3.5 | 0.00 | 0.00 | 0.00 | 79 | 1013.0 |
| 20260507134509 | 61 | 23 | 0.9 | 2.6 | 0.00 | 0.00 | 0.00 | 86 | 1014.0 |
| 20260507134409 | 61 | 23 | 0.9 | 2.6 | 0.00 | 0.00 | 0.00 | 86 | 1014.0 |
| 20260507132508 | 62 | 23 | 0.9 | 2.6 | 0.00 | 0.00 | 0.00 | 86 | 1013.0 |
| 20260507132408 | 62 | 23 | 0.9 | 2.6 | 0.00 | 0.00 | 0.00 | 86 | 1013.0 |
| 20260507130508 | 63 | 23 | 1.7 | 2.6 | 0.00 | 0.00 | 0.00 | 85 | 1012.0 |
| 20260507130408 | 63 | 23 | 1.7 | 2.6 | 0.00 | 0.00 | 0.00 | 85 | 1012.0 |
| 20260507124507 | 57 | 23 | 1.7 | 2.6 | 0.00 | 0.00 | 0.00 | 83 | 1013.0 |
| 20260507124407 | 57 | 23 | 1.7 | 2.6 | 0.00 | 0.00 | 0.00 | 83 | 1013.0 |
| 20260507122507 | 57 | 15 | 2.6 | 3.5 | 0.00 | 0.00 | 0.00 | 88 | 1012.0 |
| 20260507122406 | 57 | 15 | 2.6 | 3.5 | 0.00 | 0.00 | 0.00 | 88 | 1012.0 |
| 20260507120506 | 57 | 15 | 2.6 | 3.5 | 0.00 | 0.00 | 0.00 | 88 | 1012.0 |
| 20260507120406 | 57 | 15 | 2.6 | 3.5 | 0.00 | 0.00 | 0.00 | 88 | 1012.0 |
| 20260507114506 | 57 | 15 | 2.6 | 3.5 | 0.00 | 0.00 | 0.00 | 89 | 1013.0 |
| 20260507114405 | 57 | 15 | 2.6 | 3.5 | 0.00 | 0.00 | 0.00 | 89 | 1013.0 |
| 20260507112505 | 56 | 18 | 3.5 | 4.3 | 0.00 | 0.00 | 0.00 | 86 | 1012.0 |
| 20260507112405 | 56 | 18 | 3.5 | 4.3 | 0.00 | 0.00 | 0.00 | 86 | 1012.0 |
| 20260507110504 | 57 | 18 | 3.5 | 4.3 | 0.00 | 0.00 | 0.00 | 86 | 1013.0 |
| 20260507110404 | 57 | 18 | 3.5 | 4.3 | 0.00 | 0.00 | 0.00 | 86 | 1013.0 |
| 20260507104504 | 56 | 15 | 3.5 | 4.3 | 0.00 | 0.00 | 0.00 | 86 | 1013.0 |
| 20260507104403 | 56 | 15 | 3.5 | 4.3 | 0.00 | 0.00 | 0.00 | 86 | 1013.0 |
| 20260507102503 | 57 | 15 | 3.5 | 4.3 | 0.00 | 0.00 | 0.00 | 86 | 1013.0 |
| 20260507102403 | 57 | 15 | 3.5 | 4.3 | 0.00 | 0.00 | 0.00 | 86 | 1013.0 |
| 20260507100503 | 56 | 15 | 3.5 | 4.3 | 0.00 | 0.00 | 0.00 | 83 | 1012.0 |
| 20260507100402 | 56 | 15 | 3.5 | 4.3 | 0.00 | 0.00 | 0.00 | 83 | 1012.0 |
| 20260507094502 | 57 | 15 | 3.5 | 4.3 | 0.00 | 0.00 | 0.00 | 83 | 1013.0 |
| 20260507094402 | 57 | 15 | 3.5 | 4.3 | 0.00 | 0.00 | 0.00 | 83 | 1013.0 |
| 20260507092502 | 58 | 15 | 3.5 | 4.3 | 0.00 | 0.00 | 0.00 | 86 | 1012.0 |
| 20260507092401 | 58 | 15 | 3.5 | 4.3 | 0.00 | 0.00 | 0.00 | 86 | 1012.0 |
| 20260507090501 | 56 | 18 | 2.6 | 3.5 | 0.00 | 0.00 | 0.00 | 86 | 1012.0 |
| 20260507090400 | 56 | 18 | 2.6 | 3.5 | 0.00 | 0.00 | 0.00 | 86 | 1012.0 |
| 20260507084500 | 57 | 18 | 2.6 | 3.5 | 0.00 | 0.00 | 0.00 | 86 | 1013.0 |
| 20260507084400 | 57 | 18 | 2.6 | 3.5 | 0.00 | 0.00 | 0.00 | 86 | 1013.0 |
| 20260507082500 | 58 | 18 | 2.6 | 3.5 | 0.00 | 0.00 | 0.00 | 86 | 1012.0 |
| 20260507082400 | 58 | 18 | 2.6 | 3.5 | 0.00 | 0.00 | 0.00 | 86 | 1012.0 |
| 20260507080459 | 56 | 16 | 2.6 | 3.5 | 0.00 | 0.00 | 0.00 | 86 | 1012.0 |
| 20260507080359 | 56 | 16 | 2.6 | 3.5 | 0.00 | 0.00 | 0.00 | 86 | 1012.0 |
| 20260507074459 | 57 | 16 | 2.6 | 3.5 | 0.00 | 0.00 | 0.00 | 86 | 1013.0 |
| 20260507074358 | 57 | 16 | 2.6 | 3.5 | 0.00 | 0.00 | 0.00 | 86 | 1013.0 |
| 20260507072458 | 58 | 16 | 2.6 | 3.5 | 0.00 | 0.00 | 0.00 | 86 | 1012.0 |
| 20260507072358 | 58 | 16 | 2.6 | 3.5 | 0.00 | 0.00 | 0.00 | 86 | 1012.0 |
| 20260507070458 | 56 | 16 | 3.5 | 4.3 | 0.00 | 0.00 | 0.00 | 86 | 1012.0 |
| 20260507070358 | 56 | 16 | 3.5 | 4.3 | 0.00 | 0.00 | 0.00 | 86 | 1012.0 |
| 20260507064457 | 57 | 16 | 3.5 | 4.3 | 0.00 | 0.00 | 0.00 | 86 | 1013.0 |
| 20260507064358 | 57 | 16 | 3.5 | 4.3 | 0.00 | 0.00 | 0.00 | 86 | 1013.0 |
| 20260507062457 | 58 | 16 | 3.5 | 4.3 | 0.00 | 0.00 | 0.00 | 86 | 1013.0 |
| 20260507062357 | 58 | 16 | 3.5 | 4.3 | 0.00 | 0.00 | 0.00 | 86 | 1013.0 |
| 20260507060456 | 57 | 16 | 3.5 | 4.3 | 0.00 | 0.00 | 0.00 | 89 | 1013.0 |
| 20260507060356 | 57 | 16 | 3.5 | 4.3 | 0.00 | 0.00 | 0.00 | 89 | 1013.0 |
| 20260507054456 | 58 | 16 | 3.5 | 4.3 | 0.00 | 0.00 | 0.00 | 89 | 1014.0 |
| 20260507054355 | 58 | 16 | 3.5 | 4.3 | 0.00 | 0.00 | 0.00 | 89 | 1014.0 |
| 20260507052455 | 57 | 18 | 3.5 | 4.3 | 0.00 | 0.00 | 0.00 | 85 | 1014.0 |
| 20260507052355 | 57 | 18 | 3.5 | 4.3 | 0.00 | 0.00 | 0.00 | 85 | 1014.0 |
| 20260507050455 | 58 | 18 | 3.5 | 4.3 | 0.00 | 0.00 | 0.00 | 85 | 1014.0 |
| 20260507050354 | 58 | 18 | 3.5 | 4.3 | 0.00 | 0.00 | 0.00 | 85 | 1014.0 |
| 20260507044454 | 59 | 18 | 3.5 | 4.3 | 0.00 | 0.00 | 0.00 | 89 | 1014.0 |
| 20260507044353 | 59 | 18 | 3.5 | 4.3 | 0.00 | 0.00 | 0.00 | 89 | 1014.0 |
| 20260507042453 | 57 | 22 | 2.6 | 4.3 | 0.00 | 0.00 | 0.00 | 84 | 1014.0 |
| 20260507042353 | 57 | 22 | 2.6 | 4.3 | 0.00 | 0.00 | 0.00 | 84 | 1014.0 |
| 20260507040453 | 58 | 22 | 2.6 | 4.3 | 0.00 | 0.00 | 0.00 | 84 | 1013.0 |
| 20260507040352 | 58 | 22 | 2.6 | 4.3 | 0.00 | 0.00 | 0.00 | 84 | 1013.0 |
| 20260507034452 | 59 | 22 | 2.6 | 4.3 | 0.00 | 0.00 | 0.00 | 84 | 1014.0 |
| 20260507034352 | 59 | 22 | 2.6 | 4.3 | 0.00 | 0.00 | 0.00 | 84 | 1014.0 |
| 20260507032451 | 60 | 22 | 2.6 | 4.3 | 0.00 | 0.00 | 0.00 | 88 | 1013.0 |
| 20260507032351 | 60 | 22 | 2.6 | 4.3 | 0.00 | 0.00 | 0.00 | 88 | 1013.0 |
| 20260507030451 | 58 | 23 | 2.6 | 4.3 | 0.00 | 0.00 | 0.00 | 88 | 1013.0 |
| 20260507030351 | 58 | 23 | 2.6 | 4.3 | 0.00 | 0.00 | 0.00 | 88 | 1013.0 |
| 20260507024450 | 59 | 23 | 2.6 | 4.3 | 0.00 | 0.00 | 0.00 | 88 | 1014.0 |
| 20260507024350 | 59 | 23 | 2.6 | 4.3 | 0.00 | 0.00 | 0.00 | 88 | 1014.0 |
| 20260507022450 | 60 | 23 | 2.6 | 4.3 | 0.00 | 0.00 | 0.00 | 88 | 1012.0 |
| 20260507022350 | 60 | 23 | 2.6 | 4.3 | 0.00 | 0.00 | 0.00 | 88 | 1012.0 |
| 20260507020449 | 58 | 44 | 0.9 | 3.5 | 0.00 | 0.00 | 0.00 | 80 | 1012.0 |
| 20260507020349 | 58 | 44 | 0.9 | 3.5 | 0.00 | 0.00 | 0.00 | 80 | 1012.0 |
| 20260507014449 | 59 | 44 | 0.9 | 3.5 | 0.00 | 0.00 | 0.00 | 80 | 1013.0 |
| 20260507014349 | 59 | 44 | 0.9 | 3.5 | 0.00 | 0.00 | 0.00 | 80 | 1013.0 |
| 20260507012448 | 60 | 44 | 0.9 | 3.5 | 0.00 | 0.00 | 0.00 | 80 | 1012.0 |
| 20260507012348 | 60 | 44 | 0.9 | 3.5 | 0.00 | 0.00 | 0.00 | 80 | 1012.0 |
| 20260507010447 | 61 | 44 | 0.9 | 3.5 | 0.00 | 0.00 | 0.00 | 80 | 1012.0 |
| 20260507010347 | 61 | 44 | 0.9 | 3.5 | 0.00 | 0.00 | 0.00 | 80 | 1012.0 |
| 20260507004447 | 62 | 44 | 0.9 | 3.5 | 0.00 | 0.00 | 0.00 | 80 | 1013.0 |
| 20260507004347 | 62 | 44 | 0.9 | 3.5 | 0.00 | 0.00 | 0.00 | 80 | 1013.0 |
| 20260507002446 | 63 | 44 | 0.9 | 3.5 | 0.00 | 0.00 | 0.00 | 80 | 1012.0 |
| 20260507002346 | 63 | 44 | 0.9 | 3.5 | 0.00 | 0.00 | 0.00 | 80 | 1012.0 |
| 20260507000446 | 64 | 44 | 0.9 | 3.5 | 0.00 | 0.00 | 0.00 | 81 | 1012.0 |
| 20260507000345 | 64 | 44 | 0.9 | 3.5 | 0.00 | 0.00 | 0.00 | 81 | 1012.0 |
| 20260506234445 | 65 | 44 | 1.7 | 3.5 | 0.00 | 0.00 | 0.00 | 84 | 1012.0 |
| 20260506234345 | 65 | 44 | 1.7 | 3.5 | 0.00 | 0.00 | 0.00 | 84 | 1012.0 |
| 20260506232445 | 62 | 134 | 0.9 | 4.3 | 0.00 | 0.00 | 0.00 | 77 | 1012.0 |
| 20260506232344 | 62 | 134 | 0.9 | 4.3 | 0.00 | 0.00 | 0.00 | 77 | 1012.0 |
| 20260506230444 | 63 | 134 | 0.9 | 4.3 | 0.00 | 0.00 | 0.00 | 77 | 1012.0 |
| 20260506230344 | 63 | 134 | 0.9 | 4.3 | 0.00 | 0.00 | 0.00 | 77 | 1012.0 |
| 20260506224444 | 64 | 134 | 0.9 | 4.3 | 0.00 | 0.00 | 0.00 | 77 | 1012.0 |
| 20260506224343 | 64 | 134 | 0.9 | 4.3 | 0.00 | 0.00 | 0.00 | 77 | 1012.0 |
| 20260506222443 | 65 | 134 | 0.9 | 4.3 | 0.01 | 0.00 | 0.00 | 77 | 1011.0 |
| 20260506222343 | 65 | 134 | 0.9 | 4.3 | 0.01 | 0.00 | 0.00 | 77 | 1011.0 |
| 20260506220443 | 66 | 134 | 0.9 | 4.3 | 0.00 | 0.00 | 0.00 | 77 | 1011.0 |
| 20260506220343 | 66 | 134 | 0.9 | 4.3 | 0.00 | 0.00 | 0.00 | 77 | 1011.0 |
| 20260506214442 | 67 | 134 | 1.7 | 4.3 | 0.01 | 0.00 | 0.00 | 78 | 1011.0 |
| 20260506214342 | 67 | 134 | 1.7 | 4.3 | 0.01 | 0.00 | 0.00 | 78 | 1011.0 |
| 20260506212442 | 67 | 143 | 1.7 | 3.5 | 0.00 | 0.00 | 0.00 | 74 | 1011.0 |
| 20260506212341 | 67 | 143 | 1.7 | 3.5 | 0.00 | 0.00 | 0.00 | 74 | 1011.0 |
| 20260506210441 | 67 | 143 | 1.7 | 3.5 | 0.00 | 0.00 | 0.00 | 75 | 1011.0 |
| 20260506210341 | 67 | 143 | 1.7 | 3.5 | 0.00 | 0.00 | 0.00 | 75 | 1011.0 |
| 20260506204440 | 67 | 143 | 1.7 | 3.5 | 0.00 | 0.00 | 0.00 | 76 | 1011.0 |
| 20260506204340 | 67 | 143 | 1.7 | 3.5 | 0.00 | 0.00 | 0.00 | 76 | 1011.0 |
| 20260506202440 | 67 | 138 | 0.9 | 3.5 | 0.00 | 0.00 | 0.00 | 75 | 1012.0 |
| 20260506202340 | 67 | 138 | 0.9 | 3.5 | 0.00 | 0.00 | 0.00 | 75 | 1012.0 |
| 20260506200439 | 68 | 138 | 0.9 | 3.5 | 0.01 | 0.00 | 0.00 | 75 | 1012.0 |
| 20260506200339 | 68 | 138 | 0.9 | 3.5 | 0.01 | 0.00 | 0.00 | 75 | 1012.0 |
| 20260506194439 | 67 | 138 | 0.9 | 3.5 | 0.01 | 0.00 | 0.00 | 75 | 1012.0 |
| 20260506194339 | 67 | 138 | 0.9 | 3.5 | 0.01 | 0.00 | 0.00 | 75 | 1012.0 |
| 20260506192438 | 67 | 140 | 0.9 | 4.3 | 0.00 | 0.00 | 0.00 | 75 | 1013.0 |
| 20260506192338 | 67 | 140 | 0.9 | 4.3 | 0.00 | 0.00 | 0.00 | 75 | 1013.0 |
| 20260506190437 | 68 | 140 | 1.7 | 4.3 | 0.02 | 0.00 | 0.00 | 75 | 1013.0 |
| 20260506190337 | 68 | 140 | 1.7 | 4.3 | 0.02 | 0.00 | 0.00 | 75 | 1013.0 |
| 20260506184437 | 67 | 162 | 2.6 | 3.5 | 0.00 | 0.00 | 0.00 | 75 | 1013.0 |
| 20260506184337 | 67 | 162 | 2.6 | 3.5 | 0.00 | 0.00 | 0.00 | 75 | 1013.0 |
| 20260506182436 | 68 | 162 | 2.6 | 3.5 | 0.01 | 0.00 | 0.00 | 75 | 1013.0 |
| 20260506182336 | 68 | 162 | 2.6 | 3.5 | 0.01 | 0.00 | 0.00 | 75 | 1013.0 |
| 20260506180436 | 67 | 162 | 2.6 | 3.5 | 0.00 | 0.00 | 0.00 | 75 | 1013.0 |
| 20260506180335 | 67 | 162 | 2.6 | 3.5 | 0.00 | 0.00 | 0.00 | 75 | 1013.0 |
| 20260506174435 | 68 | 162 | 2.6 | 3.5 | 0.01 | 0.00 | 0.00 | 75 | 1013.0 |
| 20260506174335 | 68 | 162 | 2.6 | 3.5 | 0.01 | 0.00 | 0.00 | 75 | 1013.0 |
| 20260506172435 | 68 | 172 | 2.6 | 4.3 | 0.00 | 0.00 | 0.00 | 72 | 1013.0 |
| 20260506172335 | 68 | 172 | 2.6 | 4.3 | 0.00 | 0.00 | 0.00 | 72 | 1013.0 |
| 20260506170434 | 68 | 172 | 2.6 | 4.3 | 0.00 | 0.00 | 0.00 | 71 | 1013.0 |
| 20260506170334 | 68 | 172 | 2.6 | 4.3 | 0.00 | 0.00 | 0.00 | 71 | 1013.0 |
| 20260506164434 | 68 | 172 | 2.6 | 4.3 | 0.00 | 0.00 | 0.00 | 70 | 1013.0 |
| 20260506164334 | 68 | 172 | 2.6 | 4.3 | 0.00 | 0.00 | 0.00 | 70 | 1013.0 |
| 20260506162434 | 68 | 168 | 1.7 | 4.3 | 0.00 | 0.00 | 0.00 | 72 | 1013.0 |
| 20260506162333 | 68 | 168 | 1.7 | 4.3 | 0.00 | 0.00 | 0.00 | 72 | 1013.0 |
| 20260506160433 | 68 | 168 | 1.7 | 4.3 | 0.00 | 0.00 | 0.00 | 72 | 1013.0 |
| 20260506160332 | 68 | 168 | 1.7 | 4.3 | 0.00 | 0.00 | 0.00 | 72 | 1013.0 |
| 20260506154432 | 67 | 168 | 1.7 | 4.3 | 0.00 | 0.00 | 0.00 | 70 | 1013.0 |
| 20260506154332 | 67 | 168 | 1.7 | 4.3 | 0.00 | 0.00 | 0.00 | 70 | 1013.0 |